TimeCST,TemperatureF,Dew PointF,Humidity,Sea Level PressureIn,VisibilityMPH,Wind Direction,Wind SpeedMPH,Gust SpeedMPH,PrecipitationIn,Events,Conditions,WindDirDegrees,DateUTC
12:53 AM,3.9,1.9,91,30.11,10.0,SSW,8.1,-,N/A,,Clear,210,2013-02-23 06:53:00
1:53 AM,6.1,3.9,91,30.09,10.0,SW,10.4,-,N/A,,Clear,220,2013-02-23 07:53:00
2:53 AM,3.2,1.4,92,29.97,10.0,SSW,11.5,-,N/A,,Clear,210,2013-02-23 08:53:00
3:53 AM,7.0,5.0,92,30.04,9.0,SW,9.2,-,N/A,,Clear,220,2013-02-23 09:53:00
4:53 AM,8.1,5.0,87,30.03,7.0,WSW,10.4,-,N/A,,Clear,240,2013-02-23 10:53:00
5:53 AM,5.0,1.9,87,30.02,8.0,SSW,9.2,-,N/A,,Clear,210,2013-02-23 11:53:00
6:53 AM,3.9,1.9,91,30.03,7.0,SW,10.4,-,N/A,,Clear,220,2013-02-23 12:53:00
7:53 AM,6.1,3.0,87,30.03,5.0,SW,10.4,-,N/A,,Clear,220,2013-02-23 13:53:00
8:53 AM,8.1,6.1,92,30.03,6.0,SW,10.4,-,N/A,,Clear,220,2013-02-23 14:53:00
9:53 AM,12.0,9.0,88,30.03,6.0,SW,8.1,-,N/A,,Clear,230,2013-02-23 15:53:00
10:53 AM,16.0,12.0,84,30.02,7.0,SSW,9.2,-,0.00,,Clear,200,2013-02-23 16:53:00
11:53 AM,21.0,17.1,85,30.00,8.0,North,-9999.0,-,0.00,,Clear,0,2013-02-23 17:53:00
12:53 PM,28.0,23.0,81,29.98,8.0,SSW,16.1,-,N/A,,Clear,200,2013-02-23 18:53:00
1:53 PM,30.9,26.1,82,29.94,8.0,South,9.2,-,N/A,,Clear,180,2013-02-23 19:53:00
2:53 PM,33.1,26.1,75,29.92,8.0,North,-9999.0,-,N/A,,Clear,0,2013-02-23 20:53:00
3:53 PM,34.0,27.0,75,29.89,7.0,South,5.8,-,N/A,,Clear,170,2013-02-23 21:53:00
4:53 PM,34.0,28.0,79,29.89,7.0,South,8.1,-,N/A,,Clear,180,2013-02-23 22:53:00
5:53 PM,30.0,25.0,82,29.89,6.0,North,-9999.0,-,N/A,,Haze,0,2013-02-23 23:53:00
6:53 PM,28.0,24.1,85,29.90,8.0,South,11.5,-,N/A,,Clear,170,2013-02-24 00:53:00
7:53 PM,27.0,24.1,89,29.91,7.0,South,11.5,-,N/A,,Clear,180,2013-02-24 01:53:00
8:53 PM,23.0,21.0,92,29.92,6.0,South,8.1,-,N/A,,Clear,170,2013-02-24 02:53:00
9:53 PM,23.0,19.9,88,29.93,5.0,South,11.5,-,N/A,,Clear,170,2013-02-24 03:53:00
10:53 PM,21.0,19.0,92,29.91,5.0,South,12.7,-,N/A,,Clear,170,2013-02-24 04:53:00
11:53 PM,21.9,19.0,89,29.89,6.0,SSE,13.8,-,N/A,,Clear,160,2013-02-24 05:53:00